sensor_id;sensor_type;location;lat;lon;timestamp;P1;durP1;ratioP1;P2;durP2;ratioP2
40637;SDS011;26336;44.696;10.622;2024-03-02T00:01:43;29.73;;;14.90;;
40637;SDS011;26336;44.696;10.622;2024-03-02T00:04:47;25.23;;;14.45;;
40637;SDS011;26336;44.696;10.622;2024-03-02T00:07:55;24.10;;;15.15;;
40637;SDS011;26336;44.696;10.622;2024-03-02T00:11:01;22.50;;;14.05;;
40637;SDS011;26336;44.696;10.622;2024-03-02T00:14:08;24.60;;;15.27;;
40637;SDS011;26336;44.696;10.622;2024-03-02T00:17:15;31.38;;;16.17;;
40637;SDS011;26336;44.696;10.622;2024-03-02T00:20:27;28.58;;;15.82;;
40637;SDS011;26336;44.696;10.622;2024-03-02T00:23:32;25.52;;;17.52;;
40637;SDS011;26336;44.696;10.622;2024-03-02T00:26:38;26.20;;;16.05;;
40637;SDS011;26336;44.696;10.622;2024-03-02T00:29:42;24.85;;;16.67;;
40637;SDS011;26336;44.696;10.622;2024-03-02T00:32:46;24.90;;;17.48;;
40637;SDS011;26336;44.696;10.622;2024-03-02T00:35:50;29.85;;;18.95;;
40637;SDS011;26336;44.696;10.622;2024-03-02T00:38:54;30.88;;;17.35;;
40637;SDS011;26336;44.696;10.622;2024-03-02T00:41:58;29.83;;;17.38;;
40637;SDS011;26336;44.696;10.622;2024-03-02T00:45:05;30.88;;;18.70;;
40637;SDS011;26336;44.696;10.622;2024-03-02T00:48:11;35.35;;;18.30;;
40637;SDS011;26336;44.696;10.622;2024-03-02T00:51:19;28.75;;;16.40;;
40637;SDS011;26336;44.696;10.622;2024-03-02T00:54:27;30.00;;;18.05;;
40637;SDS011;26336;44.696;10.622;2024-03-02T00:57:33;29.55;;;18.95;;
40637;SDS011;26336;44.696;10.622;2024-03-02T01:00:40;35.70;;;19.55;;
40637;SDS011;26336;44.696;10.622;2024-03-02T01:03:44;29.42;;;17.88;;
40637;SDS011;26336;44.696;10.622;2024-03-02T01:06:49;30.25;;;19.08;;
40637;SDS011;26336;44.696;10.622;2024-03-02T01:09:52;34.60;;;19.50;;
40637;SDS011;26336;44.696;10.622;2024-03-02T01:12:56;32.90;;;18.80;;
40637;SDS011;26336;44.696;10.622;2024-03-02T01:16:00;36.22;;;20.67;;
40637;SDS011;26336;44.696;10.622;2024-03-02T01:19:04;35.60;;;22.00;;
40637;SDS011;26336;44.696;10.622;2024-03-02T01:22:08;36.35;;;22.15;;
40637;SDS011;26336;44.696;10.622;2024-03-02T01:25:12;40.78;;;22.27;;
40637;SDS011;26336;44.696;10.622;2024-03-02T01:28:17;35.25;;;23.15;;
40637;SDS011;26336;44.696;10.622;2024-03-02T01:31:22;35.72;;;22.48;;
40637;SDS011;26336;44.696;10.622;2024-03-02T01:34:26;39.75;;;25.23;;
40637;SDS011;26336;44.696;10.622;2024-03-02T01:37:30;37.05;;;22.98;;
40637;SDS011;26336;44.696;10.622;2024-03-02T01:40:34;34.00;;;23.70;;
40637;SDS011;26336;44.696;10.622;2024-03-02T01:43:39;34.83;;;23.30;;
40637;SDS011;26336;44.696;10.622;2024-03-02T01:46:43;41.67;;;25.27;;
40637;SDS011;26336;44.696;10.622;2024-03-02T01:49:47;35.95;;;25.13;;
40637;SDS011;26336;44.696;10.622;2024-03-02T01:52:51;46.33;;;26.48;;
40637;SDS011;26336;44.696;10.622;2024-03-02T01:55:55;42.42;;;27.80;;
40637;SDS011;26336;44.696;10.622;2024-03-02T01:58:59;47.13;;;29.52;;
40637;SDS011;26336;44.696;10.622;2024-03-02T02:02:06;58.72;;;32.58;;
40637;SDS011;26336;44.696;10.622;2024-03-02T02:05:11;47.42;;;29.98;;
40637;SDS011;26336;44.696;10.622;2024-03-02T02:08:15;43.42;;;28.95;;
40637;SDS011;26336;44.696;10.622;2024-03-02T02:11:19;41.03;;;27.05;;
40637;SDS011;26336;44.696;10.622;2024-03-02T02:14:23;41.10;;;25.13;;
40637;SDS011;26336;44.696;10.622;2024-03-02T02:17:27;36.40;;;23.85;;
40637;SDS011;26336;44.696;10.622;2024-03-02T02:20:30;44.00;;;24.70;;
40637;SDS011;26336;44.696;10.622;2024-03-02T02:23:34;39.55;;;24.40;;
40637;SDS011;26336;44.696;10.622;2024-03-02T02:26:38;41.63;;;24.42;;
40637;SDS011;26336;44.696;10.622;2024-03-02T02:29:43;47.08;;;25.02;;
40637;SDS011;26336;44.696;10.622;2024-03-02T02:32:47;38.67;;;25.17;;
40637;SDS011;26336;44.696;10.622;2024-03-02T02:35:51;39.78;;;26.77;;
40637;SDS011;26336;44.696;10.622;2024-03-02T02:38:55;34.65;;;27.08;;
40637;SDS011;26336;44.696;10.622;2024-03-02T02:41:59;45.03;;;28.55;;
40637;SDS011;26336;44.696;10.622;2024-03-02T02:45:05;43.28;;;28.42;;
40637;SDS011;26336;44.696;10.622;2024-03-02T02:48:10;39.75;;;27.90;;
40637;SDS011;26336;44.696;10.622;2024-03-02T02:51:14;42.90;;;30.88;;
40637;SDS011;26336;44.696;10.622;2024-03-02T02:54:18;43.88;;;31.48;;
40637;SDS011;26336;44.696;10.622;2024-03-02T02:57:21;50.05;;;31.33;;
40637;SDS011;26336;44.696;10.622;2024-03-02T03:00:25;42.47;;;30.92;;
40637;SDS011;26336;44.696;10.622;2024-03-02T03:03:29;45.22;;;31.48;;
40637;SDS011;26336;44.696;10.622;2024-03-02T03:06:33;45.25;;;31.73;;
40637;SDS011;26336;44.696;10.622;2024-03-02T03:09:37;50.75;;;32.72;;
40637;SDS011;26336;44.696;10.622;2024-03-02T03:12:42;49.15;;;33.08;;
40637;SDS011;26336;44.696;10.622;2024-03-02T03:15:46;47.85;;;32.65;;
40637;SDS011;26336;44.696;10.622;2024-03-02T03:18:50;47.63;;;31.88;;
40637;SDS011;26336;44.696;10.622;2024-03-02T03:21:54;46.53;;;33.05;;
40637;SDS011;26336;44.696;10.622;2024-03-02T03:24:58;46.50;;;32.55;;
40637;SDS011;26336;44.696;10.622;2024-03-02T03:28:03;48.05;;;33.42;;
40637;SDS011;26336;44.696;10.622;2024-03-02T03:31:07;42.67;;;31.58;;
40637;SDS011;26336;44.696;10.622;2024-03-02T03:34:11;43.55;;;31.10;;
40637;SDS011;26336;44.696;10.622;2024-03-02T03:37:19;42.80;;;31.02;;
40637;SDS011;26336;44.696;10.622;2024-03-02T03:40:23;50.70;;;31.73;;
40637;SDS011;26336;44.696;10.622;2024-03-02T03:43:26;41.47;;;29.00;;
40637;SDS011;26336;44.696;10.622;2024-03-02T03:46:30;40.90;;;31.48;;
40637;SDS011;26336;44.696;10.622;2024-03-02T03:49:34;45.28;;;33.05;;
40637;SDS011;26336;44.696;10.622;2024-03-02T03:52:38;43.60;;;32.05;;
40637;SDS011;26336;44.696;10.622;2024-03-02T03:55:42;42.92;;;31.77;;
40637;SDS011;26336;44.696;10.622;2024-03-02T03:58:47;42.50;;;31.38;;
40637;SDS011;26336;44.696;10.622;2024-03-02T04:01:51;47.88;;;32.28;;
40637;SDS011;26336;44.696;10.622;2024-03-02T04:04:55;45.70;;;32.70;;
40637;SDS011;26336;44.696;10.622;2024-03-02T04:07:59;43.55;;;31.45;;
40637;SDS011;26336;44.696;10.622;2024-03-02T04:11:04;43.50;;;30.67;;
40637;SDS011;26336;44.696;10.622;2024-03-02T04:14:08;48.85;;;31.23;;
40637;SDS011;26336;44.696;10.622;2024-03-02T04:17:12;44.97;;;32.15;;
40637;SDS011;26336;44.696;10.622;2024-03-02T04:20:16;48.25;;;31.17;;
40637;SDS011;26336;44.696;10.622;2024-03-02T04:23:20;45.22;;;31.40;;
40637;SDS011;26336;44.696;10.622;2024-03-02T04:26:25;45.65;;;30.08;;
40637;SDS011;26336;44.696;10.622;2024-03-02T04:29:29;45.78;;;29.90;;
40637;SDS011;26336;44.696;10.622;2024-03-02T04:32:33;43.95;;;30.10;;
40637;SDS011;26336;44.696;10.622;2024-03-02T04:35:37;39.72;;;28.02;;
40637;SDS011;26336;44.696;10.622;2024-03-02T04:38:41;46.10;;;28.40;;
40637;SDS011;26336;44.696;10.622;2024-03-02T04:41:45;46.38;;;29.35;;
40637;SDS011;26336;44.696;10.622;2024-03-02T04:44:49;44.63;;;28.95;;
40637;SDS011;26336;44.696;10.622;2024-03-02T04:47:53;39.55;;;26.38;;
40637;SDS011;26336;44.696;10.622;2024-03-02T04:50:57;35.83;;;25.50;;
40637;SDS011;26336;44.696;10.622;2024-03-02T04:54:00;37.15;;;25.83;;
40637;SDS011;26336;44.696;10.622;2024-03-02T04:57:04;40.83;;;25.27;;
40637;SDS011;26336;44.696;10.622;2024-03-02T05:00:09;32.42;;;22.92;;
40637;SDS011;26336;44.696;10.622;2024-03-02T05:03:13;29.63;;;21.98;;
40637;SDS011;26336;44.696;10.622;2024-03-02T05:06:17;31.50;;;22.42;;
40637;SDS011;26336;44.696;10.622;2024-03-02T05:09:21;34.78;;;21.33;;
40637;SDS011;26336;44.696;10.622;2024-03-02T05:12:25;33.03;;;21.42;;
40637;SDS011;26336;44.696;10.622;2024-03-02T05:15:58;33.67;;;23.13;;
40637;SDS011;26336;44.696;10.622;2024-03-02T05:19:02;35.00;;;23.23;;
40637;SDS011;26336;44.696;10.622;2024-03-02T05:22:06;32.90;;;23.10;;
40637;SDS011;26336;44.696;10.622;2024-03-02T05:25:10;37.72;;;22.73;;
40637;SDS011;26336;44.696;10.622;2024-03-02T05:28:14;36.35;;;22.48;;
40637;SDS011;26336;44.696;10.622;2024-03-02T05:31:18;39.72;;;23.65;;
40637;SDS011;26336;44.696;10.622;2024-03-02T05:34:22;37.80;;;25.75;;
40637;SDS011;26336;44.696;10.622;2024-03-02T05:37:26;35.90;;;23.90;;
40637;SDS011;26336;44.696;10.622;2024-03-02T05:40:30;38.22;;;23.90;;
40637;SDS011;26336;44.696;10.622;2024-03-02T05:43:34;34.53;;;23.98;;
40637;SDS011;26336;44.696;10.622;2024-03-02T05:46:38;35.38;;;23.63;;
40637;SDS011;26336;44.696;10.622;2024-03-02T05:49:42;40.40;;;25.17;;
40637;SDS011;26336;44.696;10.622;2024-03-02T05:52:46;37.30;;;24.95;;
40637;SDS011;26336;44.696;10.622;2024-03-02T05:55:50;36.42;;;22.77;;
40637;SDS011;26336;44.696;10.622;2024-03-02T05:58:59;34.03;;;22.85;;
40637;SDS011;26336;44.696;10.622;2024-03-02T06:02:23;36.00;;;23.45;;
40637;SDS011;26336;44.696;10.622;2024-03-02T06:05:27;37.97;;;22.77;;
40637;SDS011;26336;44.696;10.622;2024-03-02T06:08:31;32.42;;;21.75;;
40637;SDS011;26336;44.696;10.622;2024-03-02T06:11:35;30.45;;;21.52;;
40637;SDS011;26336;44.696;10.622;2024-03-02T06:14:43;28.42;;;19.52;;
40637;SDS011;26336;44.696;10.622;2024-03-02T06:17:47;25.57;;;18.33;;
40637;SDS011;26336;44.696;10.622;2024-03-02T06:20:51;28.83;;;18.70;;
40637;SDS011;26336;44.696;10.622;2024-03-02T06:23:54;29.25;;;19.73;;
40637;SDS011;26336;44.696;10.622;2024-03-02T06:26:59;27.80;;;18.65;;
40637;SDS011;26336;44.696;10.622;2024-03-02T06:30:04;27.88;;;19.40;;
40637;SDS011;26336;44.696;10.622;2024-03-02T06:33:08;29.23;;;18.15;;
40637;SDS011;26336;44.696;10.622;2024-03-02T06:36:13;25.58;;;18.90;;
40637;SDS011;26336;44.696;10.622;2024-03-02T06:39:18;28.60;;;18.63;;
40637;SDS011;26336;44.696;10.622;2024-03-02T06:42:22;23.17;;;17.83;;
40637;SDS011;26336;44.696;10.622;2024-03-02T06:45:27;25.20;;;17.67;;
40637;SDS011;26336;44.696;10.622;2024-03-02T06:48:33;25.27;;;17.80;;
40637;SDS011;26336;44.696;10.622;2024-03-02T06:51:37;26.60;;;17.42;;
40637;SDS011;26336;44.696;10.622;2024-03-02T06:54:41;23.67;;;18.13;;
40637;SDS011;26336;44.696;10.622;2024-03-02T06:57:45;20.65;;;14.98;;
40637;SDS011;26336;44.696;10.622;2024-03-02T07:00:49;22.98;;;16.92;;
40637;SDS011;26336;44.696;10.622;2024-03-02T07:03:53;20.17;;;15.02;;
40637;SDS011;26336;44.696;10.622;2024-03-02T07:06:57;21.25;;;15.10;;
40637;SDS011;26336;44.696;10.622;2024-03-02T07:10:01;20.35;;;14.90;;
40637;SDS011;26336;44.696;10.622;2024-03-02T07:13:05;18.08;;;14.50;;
40637;SDS011;26336;44.696;10.622;2024-03-02T07:16:09;18.05;;;13.25;;
40637;SDS011;26336;44.696;10.622;2024-03-02T07:19:31;17.98;;;12.85;;
40637;SDS011;26336;44.696;10.622;2024-03-02T07:22:35;17.42;;;13.38;;
40637;SDS011;26336;44.696;10.622;2024-03-02T07:25:40;19.77;;;13.57;;
40637;SDS011;26336;44.696;10.622;2024-03-02T07:28:47;17.88;;;13.88;;
40637;SDS011;26336;44.696;10.622;2024-03-02T07:31:52;22.45;;;14.32;;
40637;SDS011;26336;44.696;10.622;2024-03-02T07:34:57;17.45;;;13.43;;
40637;SDS011;26336;44.696;10.622;2024-03-02T07:38:01;20.90;;;13.90;;
40637;SDS011;26336;44.696;10.622;2024-03-02T07:41:05;18.20;;;14.10;;
40637;SDS011;26336;44.696;10.622;2024-03-02T07:44:11;19.58;;;14.80;;
40637;SDS011;26336;44.696;10.622;2024-03-02T07:47:18;22.70;;;14.75;;
40637;SDS011;26336;44.696;10.622;2024-03-02T07:50:22;19.47;;;15.47;;
40637;SDS011;26336;44.696;10.622;2024-03-02T07:53:26;19.40;;;14.75;;
40637;SDS011;26336;44.696;10.622;2024-03-02T07:56:30;21.13;;;15.43;;
40637;SDS011;26336;44.696;10.622;2024-03-02T07:59:34;18.95;;;14.93;;
40637;SDS011;26336;44.696;10.622;2024-03-02T08:02:39;21.40;;;15.65;;
40637;SDS011;26336;44.696;10.622;2024-03-02T08:05:44;21.35;;;15.98;;
40637;SDS011;26336;44.696;10.622;2024-03-02T08:08:48;21.35;;;15.93;;
40637;SDS011;26336;44.696;10.622;2024-03-02T08:11:52;21.02;;;17.13;;
40637;SDS011;26336;44.696;10.622;2024-03-02T08:14:56;23.98;;;17.75;;
40637;SDS011;26336;44.696;10.622;2024-03-02T08:18:00;23.52;;;17.45;;
40637;SDS011;26336;44.696;10.622;2024-03-02T08:21:04;22.38;;;17.38;;
40637;SDS011;26336;44.696;10.622;2024-03-02T08:24:08;25.75;;;18.73;;
40637;SDS011;26336;44.696;10.622;2024-03-02T08:27:12;24.15;;;18.27;;
40637;SDS011;26336;44.696;10.622;2024-03-02T08:30:19;26.65;;;19.88;;
40637;SDS011;26336;44.696;10.622;2024-03-02T08:33:23;25.60;;;19.58;;
40637;SDS011;26336;44.696;10.622;2024-03-02T08:36:27;31.00;;;20.42;;
40637;SDS011;26336;44.696;10.622;2024-03-02T08:39:31;27.58;;;20.25;;
40637;SDS011;26336;44.696;10.622;2024-03-02T08:42:35;26.85;;;19.40;;
40637;SDS011;26336;44.696;10.622;2024-03-02T08:45:39;29.02;;;21.13;;
40637;SDS011;26336;44.696;10.622;2024-03-02T08:48:43;28.05;;;20.00;;
40637;SDS011;26336;44.696;10.622;2024-03-02T08:51:47;26.05;;;20.25;;
40637;SDS011;26336;44.696;10.622;2024-03-02T08:54:57;28.75;;;22.33;;
40637;SDS011;26336;44.696;10.622;2024-03-02T08:58:01;27.65;;;21.65;;
40637;SDS011;26336;44.696;10.622;2024-03-02T09:01:05;32.15;;;22.35;;
40637;SDS011;26336;44.696;10.622;2024-03-02T09:04:11;30.25;;;22.98;;
40637;SDS011;26336;44.696;10.622;2024-03-02T09:07:15;29.50;;;22.30;;
40637;SDS011;26336;44.696;10.622;2024-03-02T09:10:18;28.75;;;22.17;;
40637;SDS011;26336;44.696;10.622;2024-03-02T09:13:22;31.55;;;22.60;;
40637;SDS011;26336;44.696;10.622;2024-03-02T09:16:26;25.10;;;21.42;;
40637;SDS011;26336;44.696;10.622;2024-03-02T09:19:52;28.00;;;21.58;;
40637;SDS011;26336;44.696;10.622;2024-03-02T09:22:56;27.10;;;21.20;;
40637;SDS011;26336;44.696;10.622;2024-03-02T09:26:00;27.73;;;21.10;;
40637;SDS011;26336;44.696;10.622;2024-03-02T09:29:04;29.27;;;21.27;;
40637;SDS011;26336;44.696;10.622;2024-03-02T09:32:08;23.30;;;20.20;;
40637;SDS011;26336;44.696;10.622;2024-03-02T09:35:16;22.17;;;18.00;;
40637;SDS011;26336;44.696;10.622;2024-03-02T09:38:21;19.80;;;15.30;;
40637;SDS011;26336;44.696;10.622;2024-03-02T09:41:25;19.63;;;14.00;;
40637;SDS011;26336;44.696;10.622;2024-03-02T09:44:29;19.42;;;14.43;;
40637;SDS011;26336;44.696;10.622;2024-03-02T09:47:33;16.67;;;13.35;;
40637;SDS011;26336;44.696;10.622;2024-03-02T09:50:37;16.02;;;13.45;;
40637;SDS011;26336;44.696;10.622;2024-03-02T09:53:41;15.65;;;12.77;;
40637;SDS011;26336;44.696;10.622;2024-03-02T09:56:45;14.45;;;12.02;;
40637;SDS011;26336;44.696;10.622;2024-03-02T09:59:49;13.10;;;11.30;;
40637;SDS011;26336;44.696;10.622;2024-03-02T10:02:53;12.05;;;10.77;;
40637;SDS011;26336;44.696;10.622;2024-03-02T10:06:16;11.82;;;10.38;;
40637;SDS011;26336;44.696;10.622;2024-03-02T10:09:26;15.48;;;11.35;;
40637;SDS011;26336;44.696;10.622;2024-03-02T10:12:32;11.98;;;10.30;;
40637;SDS011;26336;44.696;10.622;2024-03-02T10:15:36;12.15;;;10.77;;
40637;SDS011;26336;44.696;10.622;2024-03-02T10:18:41;12.63;;;10.80;;
40637;SDS011;26336;44.696;10.622;2024-03-02T10:21:46;13.18;;;10.73;;
40637;SDS011;26336;44.696;10.622;2024-03-02T10:24:50;11.43;;;10.32;;
40637;SDS011;26336;44.696;10.622;2024-03-02T10:27:56;12.57;;;9.98;;
40637;SDS011;26336;44.696;10.622;2024-03-02T10:31:04;14.57;;;11.90;;
40637;SDS011;26336;44.696;10.622;2024-03-02T10:34:09;12.85;;;11.00;;
40637;SDS011;26336;44.696;10.622;2024-03-02T10:37:14;13.65;;;10.05;;
40637;SDS011;26336;44.696;10.622;2024-03-02T10:40:23;18.20;;;13.55;;
40637;SDS011;26336;44.696;10.622;2024-03-02T10:43:27;16.30;;;14.48;;
40637;SDS011;26336;44.696;10.622;2024-03-02T10:46:32;16.40;;;14.70;;
40637;SDS011;26336;44.696;10.622;2024-03-02T10:49:36;13.82;;;11.43;;
40637;SDS011;26336;44.696;10.622;2024-03-02T10:52:45;15.32;;;12.70;;
40637;SDS011;26336;44.696;10.622;2024-03-02T10:55:49;11.35;;;10.20;;
40637;SDS011;26336;44.696;10.622;2024-03-02T10:59:03;10.57;;;8.93;;
40637;SDS011;26336;44.696;10.622;2024-03-02T11:02:29;10.20;;;9.00;;
40637;SDS011;26336;44.696;10.622;2024-03-02T11:05:43;14.48;;;10.00;;
40637;SDS011;26336;44.696;10.622;2024-03-02T11:08:48;8.93;;;7.97;;
40637;SDS011;26336;44.696;10.622;2024-03-02T11:15:26;10.35;;;8.70;;
40637;SDS011;26336;44.696;10.622;2024-03-02T11:18:31;11.52;;;9.70;;
40637;SDS011;26336;44.696;10.622;2024-03-02T11:21:36;11.25;;;10.05;;
40637;SDS011;26336;44.696;10.622;2024-03-02T11:24:48;10.32;;;9.32;;
40637;SDS011;26336;44.696;10.622;2024-03-02T11:30:59;7.97;;;7.20;;
40637;SDS011;26336;44.696;10.622;2024-03-02T11:37:39;10.10;;;8.48;;
40637;SDS011;26336;44.696;10.622;2024-03-02T11:40:43;11.80;;;10.60;;
40637;SDS011;26336;44.696;10.622;2024-03-02T11:43:47;12.80;;;11.52;;
40637;SDS011;26336;44.696;10.622;2024-03-02T11:47:00;10.93;;;9.93;;
40637;SDS011;26336;44.696;10.622;2024-03-02T11:50:05;8.52;;;7.72;;
40637;SDS011;26336;44.696;10.622;2024-03-02T11:53:13;8.63;;;7.82;;
40637;SDS011;26336;44.696;10.622;2024-03-02T11:56:18;9.55;;;8.55;;
40637;SDS011;26336;44.696;10.622;2024-03-02T11:59:24;9.85;;;8.88;;
40637;SDS011;26336;44.696;10.622;2024-03-02T12:02:29;9.43;;;8.10;;
40637;SDS011;26336;44.696;10.622;2024-03-02T12:05:34;9.63;;;8.52;;
40637;SDS011;26336;44.696;10.622;2024-03-02T12:08:39;10.85;;;7.93;;
40637;SDS011;26336;44.696;10.622;2024-03-02T12:11:43;9.35;;;8.45;;
40637;SDS011;26336;44.696;10.622;2024-03-02T12:14:51;6.95;;;6.35;;
40637;SDS011;26336;44.696;10.622;2024-03-02T12:18:00;6.38;;;5.78;;
40637;SDS011;26336;44.696;10.622;2024-03-02T12:21:05;7.18;;;6.47;;
40637;SDS011;26336;44.696;10.622;2024-03-02T12:24:12;6.05;;;5.55;;
40637;SDS011;26336;44.696;10.622;2024-03-02T12:27:17;5.90;;;5.40;;
40637;SDS011;26336;44.696;10.622;2024-03-02T12:30:24;5.97;;;5.38;;
40637;SDS011;26336;44.696;10.622;2024-03-02T12:33:32;5.85;;;5.22;;
40637;SDS011;26336;44.696;10.622;2024-03-02T12:36:37;6.22;;;5.45;;
40637;SDS011;26336;44.696;10.622;2024-03-02T12:39:44;8.65;;;5.50;;
40637;SDS011;26336;44.696;10.622;2024-03-02T12:42:49;5.00;;;4.40;;
40637;SDS011;26336;44.696;10.622;2024-03-02T12:45:53;5.15;;;4.65;;
40637;SDS011;26336;44.696;10.622;2024-03-02T12:49:04;7.03;;;5.03;;
40637;SDS011;26336;44.696;10.622;2024-03-02T12:52:14;5.05;;;4.55;;
40637;SDS011;26336;44.696;10.622;2024-03-02T12:55:19;5.85;;;4.45;;
40637;SDS011;26336;44.696;10.622;2024-03-02T12:58:24;4.40;;;3.83;;
40637;SDS011;26336;44.696;10.622;2024-03-02T13:01:29;5.18;;;4.68;;
40637;SDS011;26336;44.696;10.622;2024-03-02T13:04:34;6.38;;;4.55;;
40637;SDS011;26336;44.696;10.622;2024-03-02T13:07:38;6.80;;;5.25;;
40637;SDS011;26336;44.696;10.622;2024-03-02T13:10:45;4.80;;;4.38;;
40637;SDS011;26336;44.696;10.622;2024-03-02T13:13:51;5.68;;;3.78;;
40637;SDS011;26336;44.696;10.622;2024-03-02T13:16:55;4.60;;;3.80;;
40637;SDS011;26336;44.696;10.622;2024-03-02T13:20:01;4.00;;;3.60;;
40637;SDS011;26336;44.696;10.622;2024-03-02T13:23:10;4.55;;;3.72;;
40637;SDS011;26336;44.696;10.622;2024-03-02T13:26:14;4.38;;;3.97;;
40637;SDS011;26336;44.696;10.622;2024-03-02T13:29:18;4.75;;;4.35;;
40637;SDS011;26336;44.696;10.622;2024-03-02T13:32:22;4.53;;;4.03;;
40637;SDS011;26336;44.696;10.622;2024-03-02T13:35:29;4.60;;;3.80;;
40637;SDS011;26336;44.696;10.622;2024-03-02T13:38:33;3.97;;;3.60;;
40637;SDS011;26336;44.696;10.622;2024-03-02T13:41:36;3.67;;;3.35;;
40637;SDS011;26336;44.696;10.622;2024-03-02T13:44:44;4.82;;;3.90;;
40637;SDS011;26336;44.696;10.622;2024-03-02T13:47:51;5.05;;;4.22;;
40637;SDS011;26336;44.696;10.622;2024-03-02T13:50:55;4.43;;;3.95;;
40637;SDS011;26336;44.696;10.622;2024-03-02T13:54:00;4.60;;;3.63;;
40637;SDS011;26336;44.696;10.622;2024-03-02T13:57:04;3.90;;;3.60;;
40637;SDS011;26336;44.696;10.622;2024-03-02T14:00:09;4.88;;;4.43;;
40637;SDS011;26336;44.696;10.622;2024-03-02T14:03:15;4.25;;;3.95;;
40637;SDS011;26336;44.696;10.622;2024-03-02T14:06:19;4.40;;;4.00;;
40637;SDS011;26336;44.696;10.622;2024-03-02T14:09:23;4.32;;;3.92;;
40637;SDS011;26336;44.696;10.622;2024-03-02T14:12:28;3.95;;;3.63;;
40637;SDS011;26336;44.696;10.622;2024-03-02T14:15:32;3.90;;;3.60;;
40637;SDS011;26336;44.696;10.622;2024-03-02T14:18:36;3.92;;;3.53;;
40637;SDS011;26336;44.696;10.622;2024-03-02T14:21:40;4.47;;;3.75;;
40637;SDS011;26336;44.696;10.622;2024-03-02T14:24:44;4.22;;;3.50;;
40637;SDS011;26336;44.696;10.622;2024-03-02T14:27:48;4.30;;;2.95;;
40637;SDS011;26336;44.696;10.622;2024-03-02T14:30:52;3.72;;;3.10;;
40637;SDS011;26336;44.696;10.622;2024-03-02T14:34:00;3.53;;;3.22;;
40637;SDS011;26336;44.696;10.622;2024-03-02T14:37:04;4.32;;;3.85;;
40637;SDS011;26336;44.696;10.622;2024-03-02T14:40:08;4.30;;;3.90;;
40637;SDS011;26336;44.696;10.622;2024-03-02T14:43:14;7.10;;;4.15;;
40637;SDS011;26336;44.696;10.622;2024-03-02T14:46:18;4.18;;;3.83;;
40637;SDS011;26336;44.696;10.622;2024-03-02T14:49:25;3.78;;;3.47;;
40637;SDS011;26336;44.696;10.622;2024-03-02T14:52:29;6.22;;;3.97;;
40637;SDS011;26336;44.696;10.622;2024-03-02T14:55:33;5.00;;;4.50;;
40637;SDS011;26336;44.696;10.622;2024-03-02T14:58:37;4.63;;;4.22;;
40637;SDS011;26336;44.696;10.622;2024-03-02T15:01:42;4.80;;;4.40;;
40637;SDS011;26336;44.696;10.622;2024-03-02T15:04:47;4.32;;;4.03;;
40637;SDS011;26336;44.696;10.622;2024-03-02T15:07:55;5.40;;;5.00;;
40637;SDS011;26336;44.696;10.622;2024-03-02T15:10:58;6.55;;;5.95;;
40637;SDS011;26336;44.696;10.622;2024-03-02T15:14:04;6.32;;;5.57;;
40637;SDS011;26336;44.696;10.622;2024-03-02T15:17:08;6.57;;;5.80;;
40637;SDS011;26336;44.696;10.622;2024-03-02T15:20:12;6.60;;;6.00;;
40637;SDS011;26336;44.696;10.622;2024-03-02T15:23:16;7.38;;;6.78;;
40637;SDS011;26336;44.696;10.622;2024-03-02T15:26:20;6.78;;;6.18;;
40637;SDS011;26336;44.696;10.622;2024-03-02T15:29:24;7.20;;;6.55;;
40637;SDS011;26336;44.696;10.622;2024-03-02T15:32:32;9.65;;;7.00;;
40637;SDS011;26336;44.696;10.622;2024-03-02T15:35:42;7.10;;;6.45;;
40637;SDS011;26336;44.696;10.622;2024-03-02T15:38:45;7.03;;;6.25;;
40637;SDS011;26336;44.696;10.622;2024-03-02T15:41:50;6.93;;;5.72;;
40637;SDS011;26336;44.696;10.622;2024-03-02T15:44:54;6.07;;;5.57;;
40637;SDS011;26336;44.696;10.622;2024-03-02T15:47:58;6.95;;;6.35;;
40637;SDS011;26336;44.696;10.622;2024-03-02T15:51:03;6.25;;;5.65;;
40637;SDS011;26336;44.696;10.622;2024-03-02T15:54:07;6.93;;;6.32;;
40637;SDS011;26336;44.696;10.622;2024-03-02T15:57:11;6.40;;;5.80;;
40637;SDS011;26336;44.696;10.622;2024-03-02T16:00:15;6.80;;;6.20;;
40637;SDS011;26336;44.696;10.622;2024-03-02T16:03:19;6.82;;;6.15;;
40637;SDS011;26336;44.696;10.622;2024-03-02T16:06:23;6.45;;;5.85;;
40637;SDS011;26336;44.696;10.622;2024-03-02T16:09:27;6.90;;;6.25;;
40637;SDS011;26336;44.696;10.622;2024-03-02T16:12:31;6.20;;;5.60;;
40637;SDS011;26336;44.696;10.622;2024-03-02T16:15:35;9.27;;;6.32;;
40637;SDS011;26336;44.696;10.622;2024-03-02T16:18:39;6.88;;;6.18;;
40637;SDS011;26336;44.696;10.622;2024-03-02T16:21:44;7.28;;;6.63;;
40637;SDS011;26336;44.696;10.622;2024-03-02T16:24:48;6.85;;;6.18;;
40637;SDS011;26336;44.696;10.622;2024-03-02T16:27:52;6.35;;;5.85;;
40637;SDS011;26336;44.696;10.622;2024-03-02T16:30:57;7.75;;;7.05;;
40637;SDS011;26336;44.696;10.622;2024-03-02T16:34:01;7.40;;;6.80;;
40637;SDS011;26336;44.696;10.622;2024-03-02T16:37:05;7.60;;;6.90;;
40637;SDS011;26336;44.696;10.622;2024-03-02T16:40:09;7.40;;;6.70;;
40637;SDS011;26336;44.696;10.622;2024-03-02T16:43:14;8.68;;;7.25;;
40637;SDS011;26336;44.696;10.622;2024-03-02T16:46:18;7.70;;;7.00;;
40637;SDS011;26336;44.696;10.622;2024-03-02T16:49:22;10.77;;;7.40;;
40637;SDS011;26336;44.696;10.622;2024-03-02T16:52:26;8.23;;;7.45;;
40637;SDS011;26336;44.696;10.622;2024-03-02T16:55:31;8.70;;;7.18;;
40637;SDS011;26336;44.696;10.622;2024-03-02T16:58:35;9.93;;;6.78;;
40637;SDS011;26336;44.696;10.622;2024-03-02T17:01:40;7.68;;;6.97;;
40637;SDS011;26336;44.696;10.622;2024-03-02T17:04:43;8.88;;;7.15;;
40637;SDS011;26336;44.696;10.622;2024-03-02T17:07:48;7.32;;;6.80;;
40637;SDS011;26336;44.696;10.622;2024-03-02T17:10:52;7.88;;;7.28;;
40637;SDS011;26336;44.696;10.622;2024-03-02T17:13:55;8.80;;;8.02;;
40637;SDS011;26336;44.696;10.622;2024-03-02T17:17:00;8.35;;;7.65;;
40637;SDS011;26336;44.696;10.622;2024-03-02T17:20:04;7.82;;;7.15;;
40637;SDS011;26336;44.696;10.622;2024-03-02T17:23:12;8.35;;;7.65;;
40637;SDS011;26336;44.696;10.622;2024-03-02T17:26:16;8.65;;;7.95;;
40637;SDS011;26336;44.696;10.622;2024-03-02T17:29:20;8.80;;;8.00;;
40637;SDS011;26336;44.696;10.622;2024-03-02T17:32:26;8.68;;;7.97;;
40637;SDS011;26336;44.696;10.622;2024-03-02T17:35:31;8.73;;;8.02;;
40637;SDS011;26336;44.696;10.622;2024-03-02T17:38:35;9.93;;;9.13;;
40637;SDS011;26336;44.696;10.622;2024-03-02T17:41:42;9.30;;;8.40;;
40637;SDS011;26336;44.696;10.622;2024-03-02T17:44:46;9.60;;;8.70;;
40637;SDS011;26336;44.696;10.622;2024-03-02T17:47:50;9.65;;;8.68;;
40637;SDS011;26336;44.696;10.622;2024-03-02T17:50:54;9.75;;;8.88;;
40637;SDS011;26336;44.696;10.622;2024-03-02T17:53:58;10.13;;;9.23;;
40637;SDS011;26336;44.696;10.622;2024-03-02T17:57:02;9.68;;;8.80;;
40637;SDS011;26336;44.696;10.622;2024-03-02T18:00:06;10.48;;;9.52;;
40637;SDS011;26336;44.696;10.622;2024-03-02T18:03:17;10.60;;;9.70;;
40637;SDS011;26336;44.696;10.622;2024-03-02T18:06:21;10.05;;;9.25;;
40637;SDS011;26336;44.696;10.622;2024-03-02T18:09:25;9.88;;;9.02;;